Time;durP1;ratioP1;P1;durP2;ratioP2;P2;SDS_P1;SDS_P2;PMS_P1;PMS_P2;Temp;Humidity;BMP_temperature;BMP_pressure;BME280_temperature;BME280_humidity;BME280_pressure;Samples;Min_cycle;Max_cycle;Signal;HPM_P1;HPM_P2
2022/01/28 00:07:03;;;;;;;44.17;14.45;;;0.90;99.90;;;;;;20747007;28;20423;-77
2022/01/28 00:47:49;;;;;;;38.50;14.38;;;0.90;99.90;;;;;;20744664;28;20052;-77
2022/01/28 00:57:50;;;;;;;37.72;13.70;;;1.00;99.90;;;;;;20744184;28;20482;-77
2022/01/28 01:07:51;;;;;;;33.42;12.25;;;1.00;99.90;;;;;;20742546;28;20037;-77
2022/01/28 01:18:02;;;;;;;42.03;13.32;;;1.10;99.90;;;;;;20743584;28;20566;-76
2022/01/28 01:28:03;;;;;;;;;;;1.20;99.90;;;;;;20754303;28;20037;-77
2022/01/28 01:38:06;;;;;;;26.30;10.57;;;1.20;99.90;;;;;;20745948;28;19920;-77
2022/01/28 01:58:31;;;;;;;31.98;12.27;;;1.20;99.90;;;;;;20757965;28;20054;-77
2022/01/28 02:08:33;;;;;;;33.83;12.88;;;1.10;99.90;;;;;;20757235;28;20531;-77
2022/01/28 02:18:34;;;;;;;36.78;13.55;;;1.10;99.90;;;;;;20757345;28;20041;-77
2022/01/28 02:28:38;;;;;;;35.08;13.55;;;1.10;99.90;;;;;;20938628;23;20045;-75
2022/01/28 02:38:39;;;;;;;28.13;12.43;;;1.10;99.90;;;;;;20983332;28;20572;-75
2022/01/28 02:48:50;;;;;;;36.92;13.75;;;1.10;99.90;;;;;;20998674;28;20029;-75
2022/01/28 02:58:51;;;;;;;34.28;11.88;;;1.00;99.90;;;;;;20999301;28;20407;-75
2022/01/28 03:08:58;;;;;;;33.30;12.82;;;1.00;99.90;;;;;;20998141;28;20029;-75
2022/01/28 03:19:15;;;;;;;30.73;13.13;;;1.00;99.90;;;;;;20997520;28;20232;-75
2022/01/28 03:29:16;;;;;;;29.90;11.73;;;1.10;99.90;;;;;;20996601;28;20028;-75
2022/01/28 03:39:18;;;;;;;33.35;12.52;;;1.00;99.90;;;;;;20951063;28;20039;-75
2022/01/28 03:49:19;;;;;;;28.65;12.05;;;1.00;99.90;;;;;;20910550;28;20044;-75
2022/01/28 03:59:20;;;;;;;31.33;12.95;;;0.90;99.90;;;;;;20893430;28;20033;-74
2022/01/28 04:19:40;;;;;;;38.80;14.27;;;0.80;99.90;;;;;;20905928;28;20079;-75
2022/01/28 04:29:42;;;;;;;39.92;15.20;;;0.80;99.90;;;;;;20908059;28;20685;-75
2022/01/28 04:39:52;;;;;;;50.53;16.02;;;0.80;99.90;;;;;;20908986;28;20043;-76
2022/01/28 05:30:27;;;;;;;54.70;13.80;;;0.80;99.90;;;;;;20919478;28;20481;-75
2022/01/28 05:40:28;;;;;;;43.78;13.20;;;0.80;99.90;;;;;;20919201;28;20056;-75
2022/01/28 05:50:28;;;;;;;34.90;12.50;;;0.90;99.90;;;;;;20920701;28;20421;-75
2022/01/28 06:00:29;;;;;;;42.90;13.38;;;1.00;99.90;;;;;;20902372;28;20402;-76
2022/01/28 06:10:30;;;;;;;39.90;14.30;;;1.00;99.90;;;;;;20902109;28;20040;-76
2022/01/28 06:20:31;;;;;;;44.17;13.82;;;1.00;99.90;;;;;;20919297;28;20049;-75
2022/01/28 06:30:32;;;;;;;42.17;12.98;;;1.00;99.90;;;;;;20918253;28;20032;-76
2022/01/28 06:40:32;;;;;;;39.38;15.23;;;1.00;99.90;;;;;;20916117;28;20116;-76
2022/01/28 06:50:34;;;;;;;41.88;13.75;;;1.00;99.90;;;;;;20917107;28;20476;-75
2022/01/28 07:00:39;;;;;;;35.85;13.32;;;1.00;99.90;;;;;;20898282;28;20048;-76
2022/01/28 07:10:40;;;;;;;37.90;11.82;;;0.90;99.90;;;;;;20897784;28;20033;-75
2022/01/28 07:20:41;;;;;;;35.20;13.20;;;0.90;99.90;;;;;;20914734;28;20025;-75
2022/01/28 07:30:42;;;;;;;38.40;13.35;;;0.90;99.90;;;;;;20895853;28;20036;-73
2022/01/28 07:40:43;;;;;;;31.13;12.23;;;0.80;99.90;;;;;;20895013;28;20033;-75
2022/01/28 07:50:44;;;;;;;30.08;12.23;;;0.70;99.90;;;;;;20912376;28;20115;-75
2022/01/28 08:00:45;;;;;;;47.58;17.83;;;0.80;99.90;;;;;;20893905;28;20498;-75
2022/01/28 08:10:46;;;;;;;48.95;15.93;;;0.90;99.90;;;;;;20910697;28;20063;-74
2022/01/28 08:20:47;;;;;;;41.45;14.77;;;1.50;99.90;;;;;;20910176;28;20032;-75
2022/01/28 08:30:48;;;;;;;27.65;12.18;;;2.40;99.90;;;;;;20772745;22;20043;-77
2022/01/28 08:40:49;;;;;;;29.50;11.35;;;2.80;99.90;;;;;;20745963;28;20036;-78
2022/01/28 08:50:49;;;;;;;26.92;10.85;;;2.80;99.90;;;;;;20726654;28;20034;-78
2022/01/28 09:00:53;;;;;;;21.83;9.80;;;3.00;99.90;;;;;;20745309;28;20040;-77
2022/01/28 09:11:47;;;;;;;20.60;10.35;;;3.50;99.90;;;;;;20726669;28;20029;-78
2022/01/28 09:21:19;;;;;;;19.05;9.52;;;3.70;99.90;;;;;;20718440;28;20045;-77
2022/01/28 09:31:20;;;;;;;22.17;9.00;;;4.00;99.90;;;;;;20726126;28;20044;-78
2022/01/28 09:41:22;;;;;;;;;;;4.50;99.90;;;;;;20728381;28;20057;-78
2022/01/28 09:51:23;;;;;;;14.80;7.53;;;5.10;99.90;;;;;;20746530;28;19913;-78
2022/01/28 10:01:25;;;;;;;12.65;6.15;;;6.10;99.90;;;;;;20734087;28;20030;-78
2022/01/28 10:11:27;;;;;;;14.50;6.53;;;6.00;99.90;;;;;;20740084;28;20040;-77
2022/01/28 10:21:39;;;;;;;13.40;6.57;;;5.70;99.90;;;;;;20756471;28;20085;-78
2022/01/28 10:31:44;;;;;;;13.98;6.82;;;5.60;99.90;;;;;;20756331;28;20037;-78
2022/01/28 10:41:57;;;;;;;14.30;6.35;;;5.30;99.90;;;;;;20755215;28;20049;-78
2022/01/28 10:52:05;;;;;;;16.17;6.32;;;5.30;99.90;;;;;;20753792;28;20492;-76
2022/01/28 11:02:07;;;;;;;13.35;7.07;;;5.90;99.90;;;;;;20754878;28;20034;-77
2022/01/28 11:12:08;;;;;;;10.45;6.22;;;6.30;99.90;;;;;;20751725;28;20550;-77
2022/01/28 11:22:11;;;;;;;;;;;6.20;99.90;;;;;;20752629;28;20464;-77
2022/01/28 11:32:15;;;;;;;16.35;8.23;;;6.40;99.90;;;;;;20739626;28;19936;-77
2022/01/28 11:42:29;;;;;;;12.60;7.00;;;6.40;99.90;;;;;;20762466;28;20029;-78
2022/01/28 11:52:33;;;;;;;13.77;6.90;;;6.60;99.90;;;;;;20733569;28;20499;-77
2022/01/28 12:02:46;;;;;;;13.70;7.47;;;6.20;99.90;;;;;;20754898;28;20492;-78
2022/01/28 12:13:00;;;;;;;14.57;7.47;;;5.70;99.90;;;;;;20759633;28;20076;-77
2022/01/28 12:23:21;;;;;;;14.85;7.88;;;4.90;99.90;;;;;;20760788;28;20034;-78
2022/01/28 12:33:23;;;;;;;15.15;7.47;;;5.70;99.90;;;;;;20744952;28;20052;-78
2022/01/28 12:43:25;;;;;;;20.50;9.52;;;5.10;99.90;;;;;;20740847;28;20460;-78
2022/01/28 12:53:32;;;;;;;16.73;8.25;;;5.30;99.90;;;;;;20746937;28;20038;-77
2022/01/28 13:03:38;;;;;;;16.13;9.25;;;6.20;99.90;;;;;;20749348;28;20112;-77
2022/01/28 13:13:56;;;;;;;21.63;9.13;;;5.70;99.90;;;;;;20746987;28;20033;-78
2022/01/28 13:24:04;;;;;;;20.65;9.10;;;6.30;99.90;;;;;;20749503;28;20037;-78
2022/01/28 13:34:06;;;;;;;18.00;9.88;;;6.00;99.90;;;;;;20759510;28;20029;-77
2022/01/28 13:44:43;;;;;;;18.70;9.35;;;5.80;99.90;;;;;;20746492;28;20041;-77
2022/01/28 13:54:44;;;;;;;18.60;8.93;;;5.50;99.90;;;;;;20733683;28;20096;-78
2022/01/28 14:04:47;;;;;;;18.60;8.85;;;5.60;99.90;;;;;;20744351;28;20033;-77
2022/01/28 14:14:48;;;;;;;16.40;9.05;;;5.80;99.90;;;;;;20744573;28;20034;-77
2022/01/28 14:24:49;;;;;;;15.00;7.50;;;5.60;99.90;;;;;;20736945;23;20107;-75
2022/01/28 14:34:53;;;;;;;20.10;7.17;;;5.50;99.90;;;;;;20734453;28;20424;-75
2022/01/28 14:44:54;;;;;;;14.27;7.43;;;5.80;99.90;;;;;;20754442;28;20288;-73
2022/01/28 14:54:56;;;;;;;15.30;8.07;;;5.80;99.90;;;;;;20732059;28;20036;-74
2022/01/28 15:04:59;;;;;;;18.33;7.93;;;5.00;99.90;;;;;;20731545;28;20034;-73
2022/01/28 15:15:00;;;;;;;14.80;7.30;;;4.80;99.90;;;;;;20730981;28;20492;-74
2022/01/28 15:25:04;;;;;;;;;;;4.70;99.90;;;;;;20754182;28;20469;-73
2022/01/28 15:45:15;;;;;;;11.00;6.22;;;6.30;99.90;;;;;;20780170;28;20132;-74
2022/01/28 15:55:16;;;;;;;11.77;6.43;;;6.00;99.90;;;;;;20755874;28;20538;-74
2022/01/28 16:05:17;;;;;;;18.73;7.00;;;5.30;99.90;;;;;;20725742;28;20038;-73
2022/01/28 16:15:39;;;;;;;16.17;8.40;;;4.70;99.90;;;;;;20780481;28;20124;-74
2022/01/28 16:25:40;;;;;;;16.95;9.13;;;4.30;99.90;;;;;;20780806;28;20037;-74
2022/01/28 16:35:41;;;;;;;;;;;3.80;99.90;;;;;;20725860;28;20038;-75
2022/01/28 16:45:42;;;;;;;15.70;7.80;;;3.70;99.90;;;;;;20726275;28;20351;-71
2022/01/28 16:55:44;;;;;;;19.00;8.60;;;3.50;99.90;;;;;;20721074;28;20052;-74
2022/01/28 17:05:45;;;;;;;18.80;9.25;;;3.50;99.90;;;;;;20721420;28;20042;-74
2022/01/28 17:15:45;;;;;;;;;;;3.20;99.90;;;;;;20720118;28;20050;-74
2022/01/28 17:25:46;;;;;;;16.97;7.77;;;2.90;99.90;;;;;;20720821;28;19971;-74
2022/01/28 17:35:47;;;;;;;;;;;3.00;99.90;;;;;;20704427;28;20309;-75
2022/01/28 17:45:48;;;;;;;16.83;6.03;;;3.00;99.90;;;;;;20738784;28;20004;-74
2022/01/28 17:55:49;;;;;;;13.15;7.78;;;2.60;99.90;;;;;;20730779;28;20048;-74
2022/01/28 18:05:50;;;;;;;13.05;6.70;;;2.10;99.90;;;;;;20717100;28;20451;-73
2022/01/28 18:15:51;;;;;;;23.55;9.63;;;1.80;99.90;;;;;;20712721;28;20038;-74
2022/01/28 18:25:52;;;;;;;14.00;6.30;;;2.10;99.90;;;;;;20723255;28;20049;-73
2022/01/28 18:35:53;;;;;;;9.40;4.57;;;2.20;99.90;;;;;;20727970;28;20038;-73
2022/01/28 18:45:54;;;;;;;11.45;5.28;;;1.90;99.90;;;;;;20727367;28;20502;-74
2022/01/28 18:55:55;;;;;;;11.15;6.32;;;1.90;99.90;;;;;;20727296;28;20034;-74
2022/01/28 19:05:56;;;;;;;17.88;8.57;;;1.70;99.90;;;;;;20730410;28;20085;-75
2022/01/28 19:15:57;;;;;;;22.73;10.18;;;1.80;99.90;;;;;;20729531;28;20052;-75
2022/01/28 19:25:58;;;;;;;29.67;13.35;;;2.00;99.90;;;;;;20684468;28;20034;-75
2022/01/28 19:35:59;;;;;;;26.77;12.13;;;2.20;99.90;;;;;;20665402;28;20042;-74
2022/01/28 19:46:03;;;;;;;26.08;11.30;;;2.10;99.90;;;;;;20667458;28;20034;-73
2022/01/28 19:56:05;;;;;;;26.40;10.73;;;1.50;99.90;;;;;;20666488;28;20061;-73
2022/01/28 20:06:08;;;;;;;24.27;11.82;;;1.60;99.90;;;;;;20698059;28;20690;-74
2022/01/28 20:16:09;;;;;;;26.92;12.55;;;1.30;99.90;;;;;;20760163;28;20026;-74
2022/01/28 20:26:09;;;;;;;36.58;14.60;;;1.30;99.90;;;;;;20862001;23;20451;-76
2022/01/28 20:36:10;;;;;;;37.15;16.13;;;1.00;99.90;;;;;;21025958;28;20039;-76
2022/01/28 20:46:12;;;;;;;39.83;16.33;;;1.00;99.90;;;;;;21076117;28;20031;-76
2022/01/28 20:56:13;;;;;;;35.45;15.35;;;0.90;99.90;;;;;;21076366;28;20024;-76
2022/01/28 21:06:15;;;;;;;34.72;16.60;;;0.90;99.90;;;;;;21075389;28;20070;-76
2022/01/28 21:16:16;;;;;;;31.88;15.15;;;1.00;99.90;;;;;;21058307;28;20036;-76
2022/01/28 21:26:17;;;;;;;36.33;16.08;;;0.90;99.90;;;;;;21078491;28;20132;-76
2022/01/28 21:36:18;;;;;;;36.00;17.05;;;0.80;99.90;;;;;;21060868;28;20379;-75
2022/01/28 21:46:20;;;;;;;31.23;15.38;;;0.70;99.90;;;;;;21073329;28;20028;-76
2022/01/28 21:56:21;;;;;;;34.42;16.10;;;0.60;99.90;;;;;;21080697;28;20040;-76
2022/01/28 22:06:24;;;;;;;40.47;16.88;;;0.60;99.90;;;;;;21089154;28;20032;-76
2022/01/28 22:16:24;;;;;;;44.58;16.35;;;0.70;99.90;;;;;;21088296;28;20032;-76
2022/01/28 22:26:28;;;;;;;43.88;18.80;;;0.70;99.90;;;;;;21089486;28;20127;-76
2022/01/28 22:36:29;;;;;;;52.75;19.13;;;0.90;99.90;;;;;;21074139;28;20032;-75
2022/01/28 22:46:30;;;;;;;29.80;13.23;;;0.70;99.90;;;;;;21071514;28;20043;-75
2022/01/28 22:56:31;;;;;;;29.80;12.85;;;0.50;99.90;;;;;;21085501;28;20028;-75
2022/01/28 23:06:39;;;;;;;34.03;15.05;;;0.20;99.90;;;;;;21083237;28;20127;-75
2022/01/28 23:16:40;;;;;;;20.27;10.32;;;-0.10;99.90;;;;;;21083794;28;20494;-75
2022/01/28 23:26:43;;;;;;;28.50;13.70;;;-0.70;99.90;;;;;;21089015;28;20036;-74
2022/01/28 23:36:44;;;;;;;31.77;13.23;;;-0.70;99.90;;;;;;21066443;28;20678;-76
2022/01/28 23:46:45;;;;;;;18.85;8.70;;;-0.60;99.90;;;;;;21083675;28;20032;-76
2022/01/28 23:56:46;;;;;;;25.30;9.30;;;-0.70;99.90;;;;;;21081822;28;20444;-76
